createdAt,value
2022-10-26T00:04:46.698Z,72.60
2022-10-26T00:09:48.048Z,72.37
2022-10-26T00:14:49.384Z,72.41
2022-10-26T00:19:50.780Z,72.12
2022-10-26T00:24:52.314Z,72.13
2022-10-26T00:29:53.660Z,72.05
2022-10-26T00:34:55.093Z,72.15
2022-10-26T00:39:56.437Z,72.10
2022-10-26T00:45:19.228Z,72.00
2022-10-26T00:50:26.163Z,71.87
2022-10-26T00:55:35.440Z,71.84
2022-10-26T01:00:36.839Z,71.58
2022-10-26T01:05:42.313Z,71.75
2022-10-26T01:10:44.266Z,71.64
2022-10-26T01:15:58.992Z,71.58
2022-10-26T01:21:27.538Z,71.81
2022-10-26T01:26:47.056Z,71.61
2022-10-26T01:32:03.841Z,72.20
2022-10-26T01:37:12.102Z,72.10
2022-10-26T01:42:17.081Z,72.27
2022-10-26T01:47:23.486Z,72.16
2022-10-26T01:52:25.057Z,72.30
2022-10-26T01:57:26.460Z,72.04
2022-10-26T02:02:41.772Z,72.27
2022-10-26T02:08:07.647Z,71.96
2022-10-26T02:13:15.689Z,72.14
2022-10-26T02:18:38.127Z,71.95
2022-10-26T02:23:43.999Z,72.05
2022-10-26T02:28:53.883Z,71.89
2022-10-26T02:34:01.171Z,71.89
2022-10-26T02:39:04.558Z,72.07
2022-10-26T02:44:14.688Z,71.73
2022-10-26T02:49:16.656Z,72.44
2022-10-26T02:54:32.570Z,72.53
2022-10-26T02:59:37.273Z,72.42
2022-10-26T03:04:38.640Z,72.56
2022-10-26T03:09:39.976Z,73.12
2022-10-26T03:14:41.418Z,72.91
2022-10-26T03:19:42.755Z,72.85
2022-10-26T03:24:44.123Z,73.52
2022-10-26T03:29:45.512Z,73.46
2022-10-26T03:34:46.822Z,73.49
2022-10-26T03:39:48.183Z,74.36
2022-10-26T03:44:49.703Z,74.04
2022-10-26T03:49:51.086Z,73.75
2022-10-26T03:54:52.440Z,73.65
2022-10-26T03:59:53.777Z,73.43
2022-10-26T04:04:55.282Z,73.41
2022-10-26T04:09:56.614Z,73.91
2022-10-26T04:14:58.344Z,73.70
2022-10-26T04:19:59.750Z,73.63
2022-10-26T04:25:01.075Z,73.56
2022-10-26T04:30:02.431Z,73.56
2022-10-26T04:35:03.998Z,73.80
2022-10-26T04:45:13.988Z,73.93
2022-10-26T04:50:15.355Z,73.62
2022-10-26T04:55:16.791Z,73.74
2022-10-26T05:00:18.322Z,73.62
2022-10-26T05:05:19.669Z,73.47
2022-10-26T05:10:21.063Z,73.52
2022-10-26T05:15:22.603Z,73.59
2022-10-26T05:20:29.589Z,73.51
2022-10-26T05:25:33.986Z,73.59
2022-10-26T05:30:35.508Z,73.69
2022-10-26T05:35:37.473Z,74.32
2022-10-26T05:40:38.845Z,74.02
2022-10-26T05:45:40.180Z,74.60
2022-10-26T05:50:41.538Z,74.39
2022-10-26T05:55:43.483Z,74.78
2022-10-26T06:01:23.403Z,74.35
2022-10-26T06:06:37.700Z,74.20
2022-10-26T06:11:39.547Z,74.03
2022-10-26T06:17:24.739Z,73.73
2022-10-26T06:23:01.124Z,74.11
2022-10-26T06:28:21.534Z,74.00
2022-10-26T06:33:29.478Z,73.91
2022-10-26T06:38:34.334Z,73.94
2022-10-26T06:43:35.989Z,73.90
2022-10-26T06:48:51.808Z,74.04
2022-10-26T06:54:05.551Z,74.53
2022-10-26T06:59:13.815Z,74.46
2022-10-26T07:04:15.166Z,74.35
2022-10-26T07:09:16.508Z,74.14
2022-10-26T07:14:17.867Z,74.00
2022-10-26T07:19:19.254Z,73.98
2022-10-26T07:24:20.587Z,73.92
2022-10-26T07:29:23.211Z,74.04
2022-10-26T07:34:24.563Z,73.80
2022-10-26T07:39:26.405Z,73.50
2022-10-26T07:44:27.883Z,73.55
2022-10-26T07:49:29.233Z,73.39
2022-10-26T07:54:30.615Z,73.34
2022-10-26T07:59:32.006Z,73.29
2022-10-26T08:04:33.355Z,73.15
2022-10-26T08:09:34.691Z,72.93
2022-10-26T08:14:36.035Z,72.70
2022-10-26T08:19:37.551Z,72.64
2022-10-26T08:24:38.956Z,72.49
2022-10-26T08:29:41.031Z,72.33
2022-10-26T08:34:42.367Z,71.99
2022-10-26T08:39:43.761Z,72.01
2022-10-26T08:44:51.302Z,71.82
2022-10-26T08:50:02.969Z,71.62
2022-10-26T08:55:10.336Z,71.24
2022-10-26T09:00:17.296Z,71.06
2022-10-26T09:05:23.663Z,70.75
2022-10-26T09:11:10.304Z,70.81
2022-10-26T09:16:20.882Z,70.30
2022-10-26T09:21:39.474Z,69.81
2022-10-26T09:27:01.517Z,69.74
2022-10-26T09:32:04.788Z,69.25
2022-10-26T09:37:20.518Z,69.16
2022-10-26T09:42:36.519Z,68.69
2022-10-26T09:47:39.549Z,68.74
2022-10-26T09:52:40.967Z,68.45
2022-10-26T09:57:45.590Z,68.37
2022-10-26T10:02:53.096Z,68.29
2022-10-26T10:08:25.101Z,67.97
2022-10-26T10:13:29.750Z,67.58
2022-10-26T10:18:32.029Z,67.37
2022-10-26T10:23:36.510Z,67.19
2022-10-26T10:28:40.168Z,66.59
2022-10-26T10:33:42.620Z,66.61
2022-10-26T10:38:45.697Z,65.99
2022-10-26T10:44:09.094Z,65.72
2022-10-26T10:49:23.616Z,65.38
2022-10-26T10:54:34.628Z,65.11
2022-10-26T10:59:50.919Z,64.91
2022-10-26T11:05:23.472Z,64.60
2022-10-26T11:10:36.793Z,63.82
2022-10-26T11:15:42.186Z,63.85
2022-10-26T11:20:51.896Z,62.92
2022-10-26T11:26:00.132Z,63.02
2022-10-26T11:31:06.571Z,63.00
2022-10-26T11:36:19.855Z,62.83
2022-10-26T11:41:31.211Z,62.74
2022-10-26T11:46:41.419Z,62.64
2022-10-26T11:52:04.401Z,62.71
2022-10-26T11:57:05.959Z,62.26
2022-10-26T12:02:16.282Z,62.07
2022-10-26T12:07:24.739Z,62.06
2022-10-26T12:12:38.846Z,61.99
2022-10-26T12:18:36.737Z,62.02
2022-10-26T12:24:22.093Z,61.89
2022-10-26T12:29:26.579Z,61.72
2022-10-26T12:34:30.705Z,61.42
2022-10-26T12:39:37.582Z,60.92
2022-10-26T12:44:48.291Z,61.66
2022-10-26T12:50:22.527Z,61.70
2022-10-26T12:55:42.075Z,61.16
2022-10-26T13:01:08.427Z,61.33
2022-10-26T13:06:36.150Z,61.27
2022-10-26T13:11:43.660Z,60.91
2022-10-26T13:16:46.462Z,60.73
2022-10-26T13:21:49.654Z,60.74
2022-10-26T13:27:07.200Z,60.09
2022-10-26T13:32:09.148Z,60.35
2022-10-26T13:37:24.208Z,59.82
2022-10-26T13:42:39.557Z,59.54
2022-10-26T13:48:08.084Z,59.70
2022-10-26T13:53:41.320Z,59.33
2022-10-26T13:58:55.249Z,59.08
2022-10-26T14:03:57.665Z,58.72
2022-10-26T14:09:12.089Z,59.22
2022-10-26T14:14:36.214Z,58.84
2022-10-26T14:19:40.781Z,59.08
2022-10-26T14:24:51.714Z,58.89
2022-10-26T14:30:20.535Z,58.81
2022-10-26T14:35:16.611Z,58.19
2022-10-26T14:40:23.830Z,58.28
2022-10-26T14:50:59.620Z,58.20
2022-10-26T14:56:01.730Z,58.31
2022-10-26T15:01:22.233Z,57.73
2022-10-26T15:06:34.105Z,57.88
2022-10-26T15:11:41.551Z,57.99
2022-10-26T15:16:54.051Z,57.59
2022-10-26T15:21:55.579Z,58.71
2022-10-26T15:26:57.387Z,58.64
2022-10-26T15:37:10.083Z,58.76
2022-10-26T15:42:14.734Z,59.10
2022-10-26T15:47:19.470Z,59.57
2022-10-26T15:52:20.859Z,59.98
2022-10-26T15:57:23.146Z,60.51
2022-10-26T16:02:24.530Z,61.11
2022-10-26T16:07:27.370Z,61.12
2022-10-26T16:12:28.818Z,61.61
2022-10-26T16:17:30.160Z,62.32
2022-10-26T16:22:33.719Z,62.84
2022-10-26T16:27:37.749Z,63.00
2022-10-26T16:32:39.857Z,63.61
2022-10-26T16:37:41.379Z,63.80
2022-10-26T16:42:44.510Z,64.30
2022-10-26T16:47:45.938Z,64.78
2022-10-26T16:52:47.283Z,65.31
2022-10-26T16:57:49.066Z,65.76
2022-10-26T17:02:50.700Z,65.81
2022-10-26T17:07:52.294Z,66.46
2022-10-26T17:12:55.708Z,66.92
2022-10-26T17:17:57.127Z,66.97
2022-10-26T17:22:58.502Z,67.17
2022-10-26T17:27:59.900Z,67.51
2022-10-26T17:33:01.607Z,67.91
2022-10-26T17:38:03.503Z,68.10
2022-10-26T17:43:04.916Z,68.46
2022-10-26T17:48:06.328Z,68.66
2022-10-26T17:53:07.758Z,68.81
2022-10-26T17:58:09.246Z,69.11
2022-10-26T18:03:10.745Z,69.26
2022-10-26T18:08:12.199Z,69.19
2022-10-26T18:13:13.729Z,69.36
2022-10-26T18:18:15.192Z,69.48
2022-10-26T18:23:16.718Z,69.74
2022-10-26T18:28:18.234Z,69.81
2022-10-26T18:33:19.766Z,69.66
2022-10-26T18:38:21.218Z,69.92
2022-10-26T18:43:22.806Z,69.81
2022-10-26T18:48:24.338Z,69.95
2022-10-26T18:53:25.754Z,70.11
2022-10-26T18:58:36.085Z,70.47
2022-10-26T19:03:38.890Z,70.46
2022-10-26T19:08:41.121Z,70.78
2022-10-26T19:13:42.717Z,70.63
2022-10-26T19:18:44.799Z,70.65
2022-10-26T19:23:48.603Z,70.95
2022-10-26T19:28:57.849Z,71.28
2022-10-26T19:34:00.335Z,71.33
2022-10-26T19:39:02.208Z,71.33
2022-10-26T19:44:04.434Z,71.56
2022-10-26T19:49:05.959Z,71.63
2022-10-26T19:54:07.698Z,71.68
2022-10-26T19:59:11.059Z,71.64
2022-10-26T20:04:13.291Z,71.90
2022-10-26T20:09:14.800Z,71.68
2022-10-26T20:14:16.257Z,71.73
2022-10-26T20:19:17.889Z,71.46
2022-10-26T20:24:19.344Z,71.72
2022-10-26T20:29:21.753Z,71.85
2022-10-26T20:34:23.278Z,72.08
2022-10-26T20:39:25.075Z,72.20
2022-10-26T20:44:31.732Z,72.20
2022-10-26T20:49:33.423Z,72.19
2022-10-26T20:54:45.782Z,72.06
2022-10-26T20:59:51.908Z,72.28
2022-10-26T21:04:53.372Z,72.42
2022-10-26T21:09:54.889Z,72.79
2022-10-26T21:14:56.384Z,72.57
2022-10-26T21:19:57.819Z,72.67
2022-10-26T21:24:59.175Z,72.44
2022-10-26T21:30:00.517Z,72.24
2022-10-26T21:35:01.950Z,72.37
2022-10-26T21:40:03.519Z,72.93
2022-10-26T21:45:05.414Z,72.91
2022-10-26T21:50:07.300Z,72.68
2022-10-26T21:55:09.214Z,72.66
2022-10-26T22:00:11.187Z,72.63
2022-10-26T22:05:12.620Z,72.60
2022-10-26T22:10:14.040Z,72.70
2022-10-26T22:15:16.784Z,72.67
2022-10-26T22:20:18.173Z,72.77
2022-10-26T22:25:19.486Z,73.01
2022-10-26T22:30:21.084Z,73.19
2022-10-26T22:35:29.451Z,72.92
2022-10-26T22:40:31.055Z,72.82
2022-10-26T22:45:32.434Z,73.13
2022-10-26T22:50:33.788Z,72.86
2022-10-26T22:55:35.118Z,73.18
2022-10-26T23:00:37.660Z,73.17
2022-10-26T23:05:45.567Z,72.99
2022-10-26T23:10:46.900Z,73.24
2022-10-26T23:15:48.268Z,73.37
2022-10-26T23:20:50.747Z,73.38
2022-10-26T23:25:52.075Z,73.36
2022-10-26T23:30:55.878Z,73.08
2022-10-26T23:35:57.740Z,73.32
2022-10-26T23:40:59.928Z,73.27
2022-10-26T23:46:01.509Z,73.50
2022-10-26T23:51:02.910Z,73.18
2022-10-26T23:56:04.472Z,73.38
